Time;durP1;ratioP1;P1;durP2;ratioP2;P2;SDS_P1;SDS_P2;PMS_P1;PMS_P2;Temp;Humidity;BMP_temperature;BMP_pressure;BME280_temperature;BME280_humidity;BME280_pressure;Samples;Min_cycle;Max_cycle;Signal;HPM_P1;HPM_P2
2024/03/22 00:00:41;;;;;;;40.42;18.73;;;;;;;10.29;100.00;101900.44;5026970;28;20037;-74
2024/03/22 00:03:06;;;;;;;41.92;18.77;;;;;;;10.27;100.00;101893.72;5027251;28;20045;-74
2024/03/22 00:05:31;;;;;;;39.97;18.88;;;;;;;10.33;100.00;101893.25;5058196;28;20025;-74
2024/03/22 00:07:57;;;;;;;42.53;19.30;;;;;;;10.26;100.00;101890.31;5023390;28;20030;-75
2024/03/22 00:10:22;;;;;;;42.10;19.83;;;;;;;10.39;100.00;101891.91;5009763;28;20025;-74
2024/03/22 00:12:49;;;;;;;42.92;18.75;;;;;;;10.29;100.00;101884.88;5028590;28;20040;-74
2024/03/22 00:15:15;;;;;;;43.63;19.10;;;;;;;10.32;100.00;101889.84;5030730;28;20030;-74
2024/03/22 00:17:42;;;;;;;42.67;19.25;;;;;;;10.28;100.00;101880.66;5025829;28;20059;-74
2024/03/22 00:20:08;;;;;;;41.17;19.15;;;;;;;10.25;100.00;101875.72;5057407;28;20504;-74
2024/03/22 00:22:33;;;;;;;41.25;18.35;;;;;;;10.25;100.00;101873.13;5028229;28;20060;-74
2024/03/22 00:24:59;;;;;;;41.65;18.70;;;;;;;10.22;100.00;101869.97;5026654;28;20087;-74
2024/03/22 00:27:24;;;;;;;43.55;19.60;;;;;;;10.30;100.00;101871.00;5026090;28;20021;-74
2024/03/22 00:29:50;;;;;;;43.38;19.00;;;;;;;10.26;100.00;101861.78;5021535;28;20484;-74
2024/03/22 00:32:15;;;;;;;43.05;19.27;;;;;;;10.28;100.00;101859.91;5023200;28;21614;-74
2024/03/22 00:34:41;;;;;;;43.65;19.58;;;;;;;10.32;100.00;101855.28;5028605;28;20095;-74
2024/03/22 00:37:06;;;;;;;47.92;20.42;;;;;;;10.50;100.00;101847.75;5026901;28;20623;-74
2024/03/22 00:39:32;;;;;;;44.00;19.23;;;;;;;10.37;100.00;101845.38;5029513;28;20099;-74
2024/03/22 00:41:57;;;;;;;49.28;20.85;;;;;;;10.41;100.00;101841.56;5025222;28;20033;-74
2024/03/22 00:44:23;;;;;;;44.00;20.83;;;;;;;10.31;100.00;101831.16;5010692;28;20041;-74
2024/03/22 00:46:48;;;;;;;43.25;21.23;;;;;;;10.29;100.00;101827.84;5024121;28;20024;-75
2024/03/22 00:49:13;;;;;;;43.90;20.38;;;;;;;10.25;100.00;101834.25;5025040;28;20044;-74
2024/03/22 00:51:39;;;;;;;51.40;21.02;;;;;;;10.26;100.00;101827.28;5025888;28;20044;-74
2024/03/22 00:54:05;;;;;;;50.30;22.15;;;;;;;10.24;100.00;101827.41;5026809;28;20037;-74
2024/03/22 00:56:30;;;;;;;52.00;24.75;;;;;;;10.36;100.00;101828.19;5030360;28;20033;-74
2024/03/22 00:58:55;;;;;;;52.28;24.38;;;;;;;10.36;100.00;101823.00;5023711;28;20052;-74
2024/03/22 01:01:21;;;;;;;45.65;21.92;;;;;;;10.30;100.00;101826.06;5025511;28;20037;-74
2024/03/22 01:03:46;;;;;;;52.15;23.60;;;;;;;10.25;100.00;101810.91;5026201;28;20037;-74
2024/03/22 01:06:12;;;;;;;50.42;22.33;;;;;;;10.25;100.00;101823.88;5024643;28;20041;-74
2024/03/22 01:08:37;;;;;;;51.58;23.45;;;;;;;10.27;100.00;101821.97;5019824;28;20033;-74
2024/03/22 01:11:03;;;;;;;53.20;23.27;;;;;;;10.25;100.00;101815.28;5020796;28;20037;-75
2024/03/22 01:13:28;;;;;;;46.67;21.77;;;;;;;10.26;100.00;101816.91;5023453;28;20764;-73
2024/03/22 01:15:54;;;;;;;57.03;22.65;;;;;;;10.26;100.00;101814.31;5017700;28;20037;-74
2024/03/22 01:18:19;;;;;;;49.40;22.33;;;;;;;10.26;100.00;101812.53;5020014;28;20046;-74
2024/03/22 01:20:45;;;;;;;52.83;21.63;;;;;;;10.27;100.00;101808.19;5021832;28;20032;-74
2024/03/22 01:23:10;;;;;;;50.30;21.60;;;;;;;10.31;100.00;101805.22;5021477;28;20504;-74
2024/03/22 01:25:35;;;;;;;51.50;22.50;;;;;;;10.35;100.00;101797.19;5025701;28;20029;-75
2024/03/22 01:28:01;;;;;;;49.33;22.20;;;;;;;10.32;100.00;101795.66;5022509;28;20424;-74
2024/03/22 01:30:29;;;;;;;57.13;23.08;;;;;;;10.32;100.00;101791.31;5024678;28;20030;-75
2024/03/22 01:32:55;;;;;;;51.40;23.85;;;;;;;10.29;100.00;101783.78;5031694;28;20519;-74
2024/03/22 01:35:21;;;;;;;50.83;23.60;;;;;;;10.28;100.00;101779.56;5024375;28;20383;-74
2024/03/22 01:37:47;;;;;;;49.80;23.70;;;;;;;10.26;100.00;101775.44;5023117;28;20037;-74
2024/03/22 01:40:13;;;;;;;56.92;24.80;;;;;;;10.39;100.00;101772.66;5028184;28;20037;-74
2024/03/22 01:42:39;;;;;;;55.40;23.95;;;;;;;10.35;100.00;101772.09;5026097;28;20045;-75
2024/03/22 01:45:05;;;;;;;56.58;23.83;;;;;;;10.29;100.00;101773.41;5025391;28;20033;-74
2024/03/22 01:47:31;;;;;;;54.78;24.42;;;;;;;10.30;100.00;101761.25;5023284;28;20172;-74
2024/03/22 01:49:56;;;;;;;46.65;24.52;;;;;;;10.28;100.00;101758.81;5026721;28;20018;-74
2024/03/22 01:52:22;;;;;;;58.40;24.75;;;;;;;10.25;100.00;101756.47;5021923;28;20037;-74
2024/03/22 01:54:49;;;;;;;59.55;25.05;;;;;;;10.26;100.00;101770.25;5026478;28;20057;-74
2024/03/22 01:57:14;;;;;;;48.45;23.20;;;;;;;10.25;100.00;101758.25;5030081;28;20484;-75
2024/03/22 01:59:40;;;;;;;56.38;24.15;;;;;;;10.26;100.00;101765.88;5026390;28;20045;-75
2024/03/22 02:02:05;;;;;;;49.55;23.02;;;;;;;10.28;100.00;101751.03;5022552;28;20593;-75
2024/03/22 02:04:31;;;;;;;52.08;22.45;;;;;;;10.27;100.00;101754.56;5027789;28;20033;-74
2024/03/22 02:06:57;;;;;;;53.70;23.52;;;;;;;10.35;100.00;101742.75;5022188;28;20037;-74
2024/03/22 02:09:22;;;;;;;53.58;23.70;;;;;;;10.45;100.00;101741.84;5025851;28;20037;-74
2024/03/22 02:11:49;;;;;;;52.78;23.50;;;;;;;10.49;100.00;101732.00;5024100;28;20055;-74
2024/03/22 02:14:14;;;;;;;55.30;23.63;;;;;;;10.52;100.00;101727.38;5023581;28;20125;-74
2024/03/22 02:16:40;;;;;;;48.42;22.35;;;;;;;10.44;100.00;101735.00;5027528;28;20037;-74
2024/03/22 02:19:06;;;;;;;53.05;22.88;;;;;;;10.40;100.00;101733.63;5007974;28;20092;-74
2024/03/22 02:21:32;;;;;;;52.17;23.23;;;;;;;10.46;100.00;101729.69;5021683;28;20037;-74
2024/03/22 02:23:57;;;;;;;51.75;22.75;;;;;;;10.48;100.00;101718.22;5022413;28;20034;-74
2024/03/22 02:26:23;;;;;;;58.08;24.95;;;;;;;10.50;100.00;101718.91;5027143;28;20036;-74
2024/03/22 02:28:48;;;;;;;48.45;21.80;;;;;;;10.45;100.00;101709.88;5020266;28;20033;-74
2024/03/22 02:31:14;;;;;;;50.70;22.98;;;;;;;10.54;100.00;101706.50;5039809;28;20415;-74
2024/03/22 02:33:39;;;;;;;51.50;24.23;;;;;;;10.60;100.00;101697.38;5025748;28;20056;-74
2024/03/22 02:36:05;;;;;;;55.05;23.17;;;;;;;10.57;100.00;101714.03;5024193;28;21270;-74
2024/03/22 02:38:31;;;;;;;49.17;22.60;;;;;;;10.72;100.00;101704.09;5023951;28;20037;-74
2024/03/22 02:40:58;;;;;;;48.92;22.10;;;;;;;10.68;100.00;101700.94;5027376;28;20028;-74
2024/03/22 02:43:23;;;;;;;56.15;23.38;;;;;;;10.62;100.00;101706.63;5024086;28;20072;-73
2024/03/22 02:45:49;;;;;;;52.95;22.73;;;;;;;10.66;100.00;101708.03;5023823;28;20028;-74
2024/03/22 02:48:14;;;;;;;46.70;21.45;;;;;;;10.60;100.00;101699.97;5025592;28;20412;-74
2024/03/22 02:50:40;;;;;;;52.75;23.27;;;;;;;10.58;100.00;101694.91;5025322;28;20048;-74
2024/03/22 02:53:06;;;;;;;46.75;22.77;;;;;;;10.61;100.00;101699.00;5021132;28;20045;-74
2024/03/22 02:55:39;;;;;;;50.08;21.33;;;;;;;10.74;100.00;101686.59;5026221;28;20029;-74
2024/03/22 02:58:05;;;;;;;53.35;22.88;;;;;;;10.70;100.00;101682.66;5021589;28;20037;-73
2024/03/22 03:00:31;;;;;;;49.28;23.52;;;;;;;10.62;100.00;101670.31;5040225;28;20473;-74
2024/03/22 03:02:56;;;;;;;47.88;21.83;;;;;;;10.60;100.00;101672.25;5024795;28;20038;-74
2024/03/22 03:05:25;;;;;;;51.60;22.75;;;;;;;10.55;100.00;101668.41;5058867;28;20036;-74
2024/03/22 03:07:50;;;;;;;50.05;22.05;;;;;;;10.77;100.00;101668.16;5023880;28;20492;-74
2024/03/22 03:10:16;;;;;;;56.53;23.77;;;;;;;10.79;100.00;101666.25;5025616;28;20026;-74
2024/03/22 03:12:41;;;;;;;45.75;21.90;;;;;;;10.63;100.00;101653.81;5024940;28;20084;-74
2024/03/22 03:15:07;;;;;;;52.03;22.38;;;;;;;10.80;100.00;101656.72;5023656;28;20052;-74
2024/03/22 03:17:33;;;;;;;49.17;23.05;;;;;;;10.82;100.00;101649.59;5028534;28;20042;-74
2024/03/22 03:19:58;;;;;;;49.10;22.13;;;;;;;10.77;100.00;101650.00;5025936;28;20052;-74
2024/03/22 03:22:24;;;;;;;47.30;21.75;;;;;;;10.87;100.00;101642.25;5026197;28;20029;-73
2024/03/22 03:24:49;;;;;;;46.85;21.73;;;;;;;10.74;100.00;101645.09;5023202;28;20040;-73
2024/03/22 03:27:15;;;;;;;47.15;21.52;;;;;;;10.67;100.00;101641.41;5024434;28;20034;-74
2024/03/22 03:29:40;;;;;;;49.45;21.83;;;;;;;10.68;100.00;101640.44;5023343;28;20380;-74
2024/03/22 03:32:06;;;;;;;52.38;23.73;;;;;;;10.64;100.00;101639.06;5030284;28;20419;-74
2024/03/22 03:34:31;;;;;;;48.13;22.38;;;;;;;10.66;100.00;101642.34;5018878;28;20080;-74
2024/03/22 03:37:00;;;;;;;50.35;21.50;;;;;;;10.58;100.00;101639.63;5026163;28;20926;-74
2024/03/22 03:39:26;;;;;;;46.67;21.40;;;;;;;10.56;100.00;101634.56;5027963;28;20047;-74
2024/03/22 03:41:51;;;;;;;46.70;21.90;;;;;;;10.57;100.00;101632.78;5026027;28;20033;-74
2024/03/22 03:44:16;;;;;;;45.30;20.52;;;;;;;10.58;100.00;101624.88;5022075;28;20030;-74
2024/03/22 03:46:42;;;;;;;53.78;21.73;;;;;;;10.59;100.00;101620.53;5022936;28;20034;-74
2024/03/22 03:49:07;;;;;;;48.60;23.45;;;;;;;10.55;100.00;101611.34;5026709;28;20034;-74
2024/03/22 03:51:33;;;;;;;47.08;21.95;;;;;;;10.55;100.00;101608.75;5028433;28;20087;-74
2024/03/22 03:53:58;;;;;;;45.88;21.30;;;;;;;10.50;100.00;101609.19;5031322;28;20503;-74
2024/03/22 03:56:24;;;;;;;43.35;20.05;;;;;;;10.41;100.00;101597.03;5013320;28;20421;-73
2024/03/22 03:58:49;;;;;;;55.05;23.45;;;;;;;10.38;100.00;101590.34;5031882;28;20038;-74
2024/03/22 04:01:15;;;;;;;45.45;21.23;;;;;;;10.45;100.00;101588.88;5011744;28;20026;-74
2024/03/22 04:03:40;;;;;;;56.00;23.17;;;;;;;10.52;100.00;101595.13;5026298;28;20037;-74
2024/03/22 04:06:06;;;;;;;43.95;22.75;;;;;;;10.50;100.00;101584.06;5027488;28;20150;-74
2024/03/22 04:08:31;;;;;;;48.45;22.55;;;;;;;10.42;100.00;101581.34;5029485;28;20095;-74
2024/03/22 04:10:57;;;;;;;49.92;21.77;;;;;;;10.50;100.00;101578.88;5058042;28;20484;-74
2024/03/22 04:13:26;;;;;;;44.90;21.90;;;;;;;10.41;100.00;101581.47;5029514;28;20033;-74
2024/03/22 04:15:53;;;;;;;43.75;20.77;;;;;;;10.40;100.00;101585.03;5029305;28;20480;-74
2024/03/22 04:18:18;;;;;;;43.50;20.42;;;;;;;10.37;100.00;101575.75;5028834;28;20068;-74
2024/03/22 04:20:56;;;;;;;49.63;21.88;;;;;;;10.39;100.00;101575.59;5027239;28;20594;-74
2024/03/22 04:23:23;;;;;;;45.42;21.42;;;;;;;10.51;100.00;101583.13;5027409;28;20033;-74
2024/03/22 04:25:56;;;;;;;49.70;23.98;;;;;;;10.48;100.00;101573.00;5025000;28;20029;-73
2024/03/22 04:28:22;;;;;;;;;;;;;;;10.53;100.00;101564.84;5038425;28;20033;-73
2024/03/22 04:31:02;;;;;;;44.85;21.73;;;;;;;10.59;100.00;101561.69;5039831;28;19927;-73
2024/03/22 04:33:28;;;;;;;49.00;20.15;;;;;;;10.60;100.00;101552.13;5025530;28;20080;-74
2024/03/22 04:35:54;;;;;;;44.90;21.35;;;;;;;10.67;100.00;101548.03;5027515;28;20033;-74
2024/03/22 04:38:20;;;;;;;47.53;21.83;;;;;;;10.77;100.00;101553.19;5025219;28;20030;-73
2024/03/22 04:40:45;;;;;;;44.85;21.40;;;;;;;10.71;100.00;101544.19;5010705;28;20033;-73
2024/03/22 04:43:11;;;;;;;41.40;20.60;;;;;;;10.59;100.00;101540.13;5022704;28;20049;-73
2024/03/22 04:45:36;;;;;;;40.00;19.65;;;;;;;10.61;100.00;101533.84;5026880;28;20037;-73
2024/03/22 04:48:04;;;;;;;46.05;20.98;;;;;;;10.69;100.00;101543.53;5027420;28;20033;-73
2024/03/22 04:50:30;;;;;;;37.13;19.08;;;;;;;10.61;100.00;101533.03;5025383;28;20037;-73
2024/03/22 04:52:55;;;;;;;37.53;18.58;;;;;;;10.75;100.00;101529.19;5027545;28;20038;-73
2024/03/22 04:55:21;;;;;;;38.83;18.75;;;;;;;10.70;100.00;101522.63;5026507;28;20040;-73
2024/03/22 04:57:46;;;;;;;43.65;20.00;;;;;;;10.73;100.00;101537.09;5029677;28;20090;-73
2024/03/22 05:00:12;;;;;;;37.30;18.02;;;;;;;10.67;100.00;101529.88;5027418;28;20079;-73
2024/03/22 05:02:38;;;;;;;41.72;18.23;;;;;;;10.76;100.00;101534.22;5053711;28;20037;-73
2024/03/22 05:05:03;;;;;;;36.35;18.02;;;;;;;10.79;100.00;101538.31;5027838;28;21559;-74
2024/03/22 05:07:29;;;;;;;40.67;17.38;;;;;;;10.73;100.00;101529.31;5026257;28;20124;-73
2024/03/22 05:09:54;;;;;;;39.03;18.52;;;;;;;10.79;100.00;101527.94;5027399;28;20072;-73
2024/03/22 05:12:20;;;;;;;40.67;19.55;;;;;;;10.87;100.00;101525.47;5026475;28;20044;-74
2024/03/22 05:14:45;;;;;;;34.65;17.48;;;;;;;10.86;100.00;101521.25;5025580;28;20041;-72
2024/03/22 05:17:11;;;;;;;39.80;17.95;;;;;;;10.80;100.00;101527.81;5027473;28;20053;-73
2024/03/22 05:19:36;;;;;;;39.03;18.27;;;;;;;10.84;100.00;101530.94;5024078;28;20034;-73
2024/03/22 05:22:02;;;;;;;33.90;16.15;;;;;;;10.79;100.00;101526.16;5030486;28;20392;-73
2024/03/22 05:24:28;;;;;;;33.75;17.95;;;;;;;10.83;100.00;101524.94;5028330;28;20526;-73
2024/03/22 05:26:53;;;;;;;33.47;17.63;;;;;;;10.86;100.00;101529.03;5028029;28;20025;-74
2024/03/22 05:29:18;;;;;;;34.97;16.73;;;;;;;10.87;100.00;101530.69;5023891;28;20030;-73
2024/03/22 05:31:51;;;;;;;39.15;16.98;;;;;;;10.81;100.00;101539.00;5028305;28;20041;-73
2024/03/22 05:34:16;;;;;;;32.27;15.77;;;;;;;10.96;100.00;101529.81;5025415;28;20518;-74
2024/03/22 05:36:42;;;;;;;33.03;16.23;;;;;;;10.89;100.00;101529.56;5026353;28;20033;-73
2024/03/22 05:39:08;;;;;;;38.20;17.15;;;;;;;10.87;100.00;101534.06;5024920;28;20037;-74
2024/03/22 05:41:33;;;;;;;38.50;17.90;;;;;;;10.98;100.00;101529.66;5027204;28;20033;-74
2024/03/22 05:43:59;;;;;;;32.85;16.48;;;;;;;10.97;100.00;101531.44;5026065;28;20408;-74
2024/03/22 05:46:24;;;;;;;36.30;16.33;;;;;;;10.95;100.00;101530.78;5028075;28;20033;-73
2024/03/22 05:48:51;;;;;;;34.65;16.40;;;;;;;10.87;100.00;101523.69;5023982;28;20033;-74
2024/03/22 05:51:17;;;;;;;37.05;17.75;;;;;;;10.93;100.00;101524.09;5022494;28;20450;-73
2024/03/22 05:53:42;;;;;;;33.67;16.67;;;;;;;10.91;100.00;101532.03;5025812;28;20033;-74
2024/03/22 05:56:08;;;;;;;36.58;16.95;;;;;;;10.94;100.00;101533.50;5024244;28;20033;-73
2024/03/22 05:58:34;;;;;;;38.28;17.10;;;;;;;10.91;100.00;101525.06;5023071;28;20041;-73
2024/03/22 06:01:00;;;;;;;35.35;16.77;;;;;;;10.86;100.00;101527.25;5028362;28;20112;-74
2024/03/22 06:03:25;;;;;;;36.22;17.13;;;;;;;10.89;100.00;101526.97;5007665;28;20036;-74
2024/03/22 06:05:55;;;;;;;37.20;17.67;;;;;;;10.98;100.00;101520.13;5026175;28;20404;-73
2024/03/22 06:08:21;;;;;;;31.38;17.58;;;;;;;10.95;100.00;101515.22;5023844;28;20052;-73
2024/03/22 06:10:46;;;;;;;32.78;15.93;;;;;;;10.95;100.00;101507.44;5041813;28;20026;-74
2024/03/22 06:13:12;;;;;;;37.53;17.42;;;;;;;11.05;100.00;101517.78;5026380;28;20041;-73
2024/03/22 06:15:37;;;;;;;35.63;15.75;;;;;;;10.97;100.00;101509.88;5033034;28;20030;-73
2024/03/22 06:18:03;;;;;;;35.35;17.30;;;;;;;10.93;100.00;101500.75;5025283;28;20041;-73
2024/03/22 06:20:28;;;;;;;31.80;16.02;;;;;;;11.00;100.00;101510.44;5024892;28;20037;-73
2024/03/22 06:22:54;;;;;;;29.92;15.93;;;;;;;11.02;100.00;101503.31;5023053;28;20041;-73
2024/03/22 06:25:19;;;;;;;36.72;17.40;;;;;;;11.19;100.00;101501.75;5026758;28;20392;-73
2024/03/22 06:27:44;;;;;;;29.67;16.70;;;;;;;11.30;100.00;101511.09;5039453;28;20090;-74
2024/03/22 06:30:11;;;;;;;31.98;15.70;;;;;;;11.21;100.00;101509.41;5027973;28;20176;-73
2024/03/22 06:32:36;;;;;;;36.28;17.30;;;;;;;11.31;100.00;101502.38;5024171;28;20137;-73
2024/03/22 06:35:05;;;;;;;29.92;16.63;;;;;;;11.29;100.00;101489.53;5029838;28;20029;-74
2024/03/22 06:37:31;;;;;;;37.47;17.35;;;;;;;11.35;100.00;101489.94;5021010;28;20496;-74
2024/03/22 06:39:58;;;;;;;33.90;16.23;;;;;;;11.29;100.00;101497.31;5021260;28;20014;-73
2024/03/22 06:42:23;;;;;;;39.33;17.75;;;;;;;11.24;100.00;101493.53;5023194;28;20030;-74
2024/03/22 06:44:49;;;;;;;39.05;17.00;;;;;;;11.34;100.00;101480.47;5012121;28;20025;-74
2024/03/22 06:47:14;;;;;;;34.25;17.20;;;;;;;11.42;100.00;101486.59;5026624;28;20080;-73
2024/03/22 06:49:40;;;;;;;29.33;15.88;;;;;;;11.34;100.00;101483.09;5020624;28;20042;-74
2024/03/22 06:52:06;;;;;;;34.30;15.40;;;;;;;11.33;100.00;101484.88;5030509;28;20037;-73
2024/03/22 06:54:31;;;;;;;30.85;16.45;;;;;;;11.39;100.00;101486.06;5021459;28;20037;-73
2024/03/22 06:56:56;;;;;;;36.65;16.20;;;;;;;11.41;100.00;101484.97;5024099;28;20079;-74
2024/03/22 06:59:22;;;;;;;34.80;16.80;;;;;;;11.46;100.00;101493.13;5022267;28;20042;-73
2024/03/22 07:01:47;;;;;;;40.38;18.13;;;;;;;11.46;100.00;101481.94;5023098;28;20034;-73
2024/03/22 07:04:13;;;;;;;34.28;16.60;;;;;;;11.54;100.00;101486.41;5029400;28;20044;-74
2024/03/22 07:06:39;;;;;;;40.42;17.02;;;;;;;11.73;100.00;101481.09;5022473;28;20057;-73
2024/03/22 07:09:07;;;;;;;34.10;15.93;;;;;;;11.78;100.00;101481.47;5005913;28;20042;-74
2024/03/22 07:11:32;;;;;;;30.55;16.45;;;;;;;11.93;100.00;101478.41;5025877;28;20026;-73
2024/03/22 07:13:58;;;;;;;36.15;16.85;;;;;;;12.19;100.00;101483.66;5028861;28;20387;-73
2024/03/22 07:16:23;;;;;;;31.55;15.95;;;;;;;12.40;100.00;101476.34;5032949;28;20450;-73
2024/03/22 07:18:49;;;;;;;34.60;17.20;;;;;;;12.37;100.00;101489.66;5014733;28;20042;-72
2024/03/22 07:21:14;;;;;;;30.65;16.02;;;;;;;12.53;98.98;101482.97;5024405;28;20033;-73
2024/03/22 07:23:40;;;;;;;34.28;17.05;;;;;;;12.87;97.01;101477.00;5031133;28;20043;-74
2024/03/22 07:26:07;;;;;;;35.92;16.40;;;;;;;13.05;96.06;101481.16;5025028;28;20025;-73
2024/03/22 07:28:33;;;;;;;32.30;17.48;;;;;;;13.26;94.24;101477.31;5024259;28;20037;-73
2024/03/22 07:30:59;;;;;;;33.90;16.80;;;;;;;13.22;94.60;101481.19;5024479;28;20030;-74
2024/03/22 07:33:24;;;;;;;34.50;17.27;;;;;;;13.07;94.49;101480.16;5029991;28;20036;-73
2024/03/22 07:35:50;;;;;;;44.92;18.50;;;;;;;12.78;96.59;101471.72;5027203;28;20033;-73
2024/03/22 07:38:15;;;;;;;34.30;17.67;;;;;;;12.64;96.95;101477.50;5028394;28;20037;-74
2024/03/22 07:40:41;;;;;;;36.58;17.02;;;;;;;12.57;97.57;101471.28;5024693;28;20034;-74
2024/03/22 07:43:06;;;;;;;36.50;17.40;;;;;;;12.48;97.72;101470.38;5028729;28;20539;-73
2024/03/22 07:45:34;;;;;;;38.80;17.20;;;;;;;12.49;97.87;101466.84;5027668;28;20034;-74
2024/03/22 07:47:59;;;;;;;37.70;16.65;;;;;;;12.49;98.55;101471.19;5029510;28;20038;-73
2024/03/22 07:50:25;;;;;;;34.33;16.70;;;;;;;12.52;97.83;101465.69;5028644;28;20075;-74
2024/03/22 07:52:51;;;;;;;32.20;17.17;;;;;;;12.52;96.92;101466.50;5027903;28;20408;-73
2024/03/22 07:55:17;;;;;;;34.60;16.02;;;;;;;12.57;97.17;101464.28;5022251;28;20157;-73
2024/03/22 07:57:42;;;;;;;32.03;16.20;;;;;;;12.56;95.19;101469.63;5026792;28;20030;-73
2024/03/22 08:00:08;;;;;;;31.48;15.65;;;;;;;12.57;96.30;101469.47;5028306;28;20815;-73
2024/03/22 08:02:41;;;;;;;34.17;16.57;;;;;;;12.49;96.68;101471.19;5028384;28;20116;-73
2024/03/22 08:05:06;;;;;;;31.95;16.58;;;;;;;12.59;95.46;101466.72;5028178;28;20472;-73
2024/03/22 08:07:32;;;;;;;41.28;20.10;;;;;;;12.66;95.66;101465.97;5028195;28;20048;-73
2024/03/22 08:09:58;;;;;;;31.02;15.98;;;;;;;12.65;95.91;101456.50;5033375;28;20032;-73
2024/03/22 08:12:24;;;;;;;30.48;16.15;;;;;;;12.74;94.56;101473.00;5029009;28;20481;-74
2024/03/22 08:14:50;;;;;;;32.00;15.02;;;;;;;12.76;94.57;101470.25;5028869;28;20040;-74
2024/03/22 08:17:16;;;;;;;32.15;14.82;;;;;;;12.63;92.94;101466.25;5030165;28;20040;-74
2024/03/22 08:19:42;;;;;;;31.52;16.05;;;;;;;12.75;93.85;101469.44;5026558;28;20054;-73
2024/03/22 08:22:07;;;;;;;29.00;14.57;;;;;;;12.82;93.73;101472.22;5023367;28;20501;-74
2024/03/22 08:24:33;;;;;;;32.65;14.43;;;;;;;12.91;94.83;101471.31;5023047;28;20419;-73
2024/03/22 08:26:59;;;;;;;30.45;15.30;;;;;;;12.96;92.71;101471.66;5023724;28;20080;-74
2024/03/22 08:29:24;;;;;;;35.35;15.85;;;;;;;13.07;91.79;101474.94;5027596;28;20025;-74
2024/03/22 08:31:50;;;;;;;34.88;14.82;;;;;;;13.31;90.93;101466.47;5028773;28;20737;-74
2024/03/22 08:34:15;;;;;;;29.70;15.05;;;;;;;13.55;88.65;101465.72;5027831;28;20045;-74
2024/03/22 08:36:41;;;;;;;28.08;14.07;;;;;;;13.41;88.46;101465.38;5025499;28;20044;-74
2024/03/22 08:39:09;;;;;;;30.13;15.10;;;;;;;13.35;87.54;101460.75;5027843;28;20044;-74
2024/03/22 08:41:35;;;;;;;29.25;14.38;;;;;;;13.44;89.23;101456.41;5027301;28;20034;-73
2024/03/22 08:44:00;;;;;;;30.67;15.25;;;;;;;13.44;88.41;101451.19;5025246;28;20504;-73
2024/03/22 08:46:27;;;;;;;28.02;13.63;;;;;;;13.45;88.32;101450.22;5030022;28;20037;-74
2024/03/22 08:48:53;;;;;;;30.00;15.02;;;;;;;13.51;86.27;101454.00;5028599;28;20083;-74
2024/03/22 08:51:21;;;;;;;27.40;14.63;;;;;;;13.70;87.50;101458.91;5027916;28;20029;-74
2024/03/22 08:53:46;;;;;;;27.60;14.60;;;;;;;13.76;85.62;101458.25;5025895;28;20492;-74
2024/03/22 08:56:12;;;;;;;29.25;14.63;;;;;;;13.87;85.39;101453.72;5017291;28;20041;-74
2024/03/22 08:58:37;;;;;;;31.33;16.20;;;;;;;14.19;84.56;101447.69;5028787;28;20037;-74
2024/03/22 09:01:03;;;;;;;31.98;15.45;;;;;;;14.17;84.47;101447.03;5041618;28;20083;-74
2024/03/22 09:03:30;;;;;;;32.30;14.70;;;;;;;13.93;84.25;101458.28;5027374;28;20741;-74
2024/03/22 09:05:55;;;;;;;34.53;14.73;;;;;;;14.05;84.47;101443.13;5032876;28;20034;-74
2024/03/22 09:08:24;;;;;;;32.28;14.32;;;;;;;14.37;82.79;101439.69;5026429;28;20037;-74
2024/03/22 09:10:49;;;;;;;31.13;15.32;;;;;;;15.11;79.91;101437.72;5027566;28;20025;-74
2024/03/22 09:13:15;;;;;;;27.05;14.93;;;;;;;15.87;76.13;101419.63;5028484;28;20040;-73
2024/03/22 09:15:40;;;;;;;30.90;13.73;;;;;;;15.92;74.79;101426.94;5027882;28;20052;-74
2024/03/22 09:18:06;;;;;;;20.63;12.23;;;;;;;16.02;75.23;101424.88;5028776;28;20037;-74
2024/03/22 09:20:32;;;;;;;25.67;12.82;;;;;;;15.99;74.35;101422.63;5057261;28;20068;-74
2024/03/22 09:22:57;;;;;;;25.55;11.60;;;;;;;15.88;73.84;101423.03;5026786;28;20032;-74
2024/03/22 09:25:24;;;;;;;21.65;11.18;;;;;;;15.77;71.77;101426.91;5029263;28;20037;-74
2024/03/22 09:27:49;;;;;;;23.08;10.10;;;;;;;15.40;68.50;101415.34;5030790;28;20107;-75
2024/03/22 09:30:15;;;;;;;19.77;9.13;;;;;;;15.32;69.05;101410.97;5015514;28;20032;-74
2024/03/22 09:32:42;;;;;;;16.48;9.07;;;;;;;15.05;69.53;101414.91;5029100;28;20492;-74
2024/03/22 09:35:08;;;;;;;17.48;8.77;;;;;;;15.11;69.34;101422.03;5027664;28;20037;-74
2024/03/22 09:37:33;;;;;;;16.75;8.32;;;;;;;14.91;68.44;101418.22;5024723;28;20569;-74
2024/03/22 09:39:59;;;;;;;17.85;8.63;;;;;;;14.75;69.21;101419.09;5031183;28;20041;-74
2024/03/22 09:42:25;;;;;;;17.33;8.48;;;;;;;14.77;70.35;101424.97;5032723;28;20060;-75
2024/03/22 09:44:51;;;;;;;17.33;8.38;;;;;;;14.66;68.44;101401.81;5026053;28;20041;-73
2024/03/22 09:47:20;;;;;;;13.90;7.82;;;;;;;14.57;68.52;101404.44;5029316;28;20029;-74
2024/03/22 09:49:48;;;;;;;18.20;8.00;;;;;;;14.64;68.76;101401.19;5027740;28;20033;-74
2024/03/22 09:52:15;;;;;;;16.10;8.55;;;;;;;14.58;68.88;101400.06;5028633;28;20060;-76
2024/03/22 09:54:41;;;;;;;17.27;8.18;;;;;;;14.66;68.63;101407.84;5023407;28;20427;-75
2024/03/22 09:57:17;;;;;;;15.27;7.63;;;;;;;14.54;67.78;101402.16;5029103;28;20168;-74
2024/03/22 09:59:45;;;;;;;15.93;8.48;;;;;;;14.50;68.56;101397.41;5007247;28;20050;-75
2024/03/22 10:02:12;;;;;;;14.25;8.38;;;;;;;14.39;69.10;101395.97;5006102;28;20045;-74
2024/03/22 10:04:39;;;;;;;17.17;7.78;;;;;;;14.54;67.21;101393.50;5027106;28;20068;-75
2024/03/22 10:07:04;;;;;;;16.88;8.32;;;;;;;14.53;68.36;101384.06;5028522;28;20030;-73
2024/03/22 10:09:31;;;;;;;15.38;8.32;;;;;;;14.59;67.79;101384.22;5029568;28;20571;-74
2024/03/22 10:11:57;;;;;;;17.15;7.97;;;;;;;14.55;69.11;101384.69;5023973;28;20041;-74
2024/03/22 10:14:25;;;;;;;17.15;8.55;;;;;;;14.50;69.76;101382.56;5012297;28;20033;-75
2024/03/22 10:16:53;;;;;;;22.90;9.02;;;;;;;14.63;69.73;101381.28;5028189;28;20060;-74
2024/03/22 10:19:23;;;;;;;20.60;9.32;;;;;;;14.48;70.25;101376.72;5023684;28;20037;-74
2024/03/22 10:22:00;;;;;;;16.77;8.98;;;;;;;14.64;71.66;101375.88;5036673;28;20087;-74
2024/03/22 10:24:26;;;;;;;16.15;8.18;;;;;;;14.63;71.76;101365.63;5044925;28;20033;-73
2024/03/22 10:26:52;;;;;;;16.52;8.75;;;;;;;14.78;72.04;101361.31;5028063;28;20503;-74
2024/03/22 10:29:17;;;;;;;19.17;9.70;;;;;;;14.71;71.77;101373.41;5024213;28;20793;-75
2024/03/22 10:31:43;;;;;;;14.77;8.23;;;;;;;14.66;73.72;101362.69;5030865;28;20053;-75
2024/03/22 10:34:12;;;;;;;17.17;9.32;;;;;;;14.72;73.18;101365.41;5025846;28;20119;-75
2024/03/22 10:36:39;;;;;;;18.67;9.13;;;;;;;14.79;72.94;101353.31;5020391;28;20040;-74
2024/03/22 10:39:06;;;;;;;19.05;8.75;;;;;;;14.78;71.59;101356.88;5028940;28;20037;-74
2024/03/22 10:41:32;;;;;;;15.55;8.65;;;;;;;14.70;73.77;101348.31;5026070;28;20111;-74
2024/03/22 10:43:58;;;;;;;17.73;9.50;;;;;;;14.73;72.94;101347.94;5024647;28;20668;-74
2024/03/22 10:46:29;;;;;;;22.45;9.75;;;;;;;14.77;73.67;101349.25;5029077;28;20067;-74
2024/03/22 10:48:56;;;;;;;19.30;9.75;;;;;;;14.93;72.38;101346.53;5035620;28;20041;-74
2024/03/22 10:51:23;;;;;;;19.83;9.38;;;;;;;14.86;72.10;101342.19;5030591;28;20025;-74
2024/03/22 10:53:50;;;;;;;17.30;8.77;;;;;;;15.06;71.78;101332.94;5033837;28;20034;-74
2024/03/22 10:56:17;;;;;;;20.33;9.02;;;;;;;15.16;69.36;101319.66;5031863;28;20056;-74
2024/03/22 10:58:43;;;;;;;17.48;8.95;;;;;;;15.34;69.14;101327.22;5028259;28;20087;-74